createdAt,value
2022-12-20T00:02:40.927Z,-0.19
2022-12-20T00:06:41.840Z,-0.17
2022-12-20T00:10:42.674Z,-0.15
2022-12-20T00:14:42.352Z,-0.12
2022-12-20T00:18:43.153Z,-0.09
2022-12-20T00:22:19.398Z,-0.06
2022-12-20T00:26:20.693Z,-0.04
2022-12-20T00:30:20.094Z,-0.01
2022-12-20T00:34:21.186Z,0.02
2022-12-20T00:38:20.258Z,0.04
2022-12-20T00:42:19.519Z,0.07
2022-12-20T00:46:19.835Z,0.10
2022-12-20T00:50:19.427Z,0.12
2022-12-20T00:54:18.744Z,0.14
2022-12-20T00:58:18.085Z,0.16
2022-12-20T01:02:17.264Z,0.19
2022-12-20T01:06:17.164Z,0.22
2022-12-20T01:10:30.482Z,0.25
2022-12-20T01:14:29.893Z,0.27
2022-12-20T01:18:29.418Z,0.31
2022-12-20T01:22:28.539Z,0.33
2022-12-20T01:26:28.918Z,0.36
2022-12-20T01:30:28.720Z,0.38
2022-12-20T01:34:28.210Z,0.40
2022-12-20T01:38:28.417Z,0.42
2022-12-20T01:42:27.797Z,0.44
2022-12-20T01:46:29.428Z,0.46
2022-12-20T01:50:28.874Z,0.48
2022-12-20T01:54:27.837Z,0.50
2022-12-20T01:58:27.263Z,0.52
2022-12-20T02:02:27.043Z,0.52
2022-12-20T02:06:28.028Z,0.51
2022-12-20T02:10:30.038Z,0.51
2022-12-20T02:14:49.413Z,0.51
2022-12-20T02:18:57.188Z,0.54
2022-12-20T02:23:25.479Z,0.54
2022-12-20T02:27:45.360Z,0.60
2022-12-20T02:32:02.681Z,0.66
2022-12-20T02:36:03.539Z,0.70
2022-12-20T02:40:04.994Z,0.71
2022-12-20T02:44:46.118Z,0.71
2022-12-20T02:48:10.802Z,0.72
2022-12-20T02:51:23.599Z,0.73
2022-12-20T02:55:28.424Z,0.75
2022-12-20T02:59:30.892Z,0.80
2022-12-20T03:03:32.837Z,0.82
2022-12-20T03:07:34.212Z,0.82
2022-12-20T03:11:34.161Z,0.82
2022-12-20T03:15:33.740Z,0.79
2022-12-20T03:19:34.776Z,0.76
2022-12-20T03:23:33.944Z,0.73
2022-12-20T03:27:51.571Z,0.72
2022-12-20T03:31:10.625Z,0.71
2022-12-20T03:35:15.998Z,0.75
2022-12-20T03:39:15.597Z,0.73
2022-12-20T03:43:15.174Z,0.73
2022-12-20T03:47:14.921Z,0.81
2022-12-20T03:51:14.301Z,0.83
2022-12-20T03:55:13.837Z,0.87
2022-12-20T03:59:16.299Z,0.94
2022-12-20T04:03:16.137Z,1.02
2022-12-20T04:07:16.737Z,1.00
2022-12-20T04:11:19.288Z,1.02
2022-12-20T04:15:22.165Z,0.98
2022-12-20T04:19:22.127Z,0.98
2022-12-20T04:23:21.733Z,0.97
2022-12-20T04:27:21.683Z,0.98
2022-12-20T04:31:24.346Z,1.00
2022-12-20T04:35:24.793Z,1.03
2022-12-20T04:39:24.135Z,1.06
2022-12-20T04:43:43.196Z,1.11
2022-12-20T04:47:44.233Z,1.11
2022-12-20T04:51:44.529Z,1.12
2022-12-20T04:55:45.167Z,1.12
2022-12-20T05:00:00.743Z,1.12
2022-12-20T05:03:37.556Z,1.13
2022-12-20T05:07:38.940Z,1.16
2022-12-20T05:11:39.706Z,1.16
2022-12-20T05:15:42.426Z,1.16
2022-12-20T05:19:57.076Z,1.16
2022-12-20T05:24:17.485Z,1.18
2022-12-20T05:28:37.854Z,1.20
2022-12-20T05:32:55.150Z,1.24
2022-12-20T05:36:29.747Z,1.28
2022-12-20T05:40:30.312Z,1.29
2022-12-20T05:44:08.656Z,1.31
2022-12-20T05:48:11.895Z,1.33
2022-12-20T05:52:12.660Z,1.34
2022-12-20T05:56:13.550Z,1.33
2022-12-20T06:00:13.843Z,1.33
2022-12-20T06:04:16.678Z,1.34
2022-12-20T06:08:18.344Z,1.33
2022-12-20T06:12:32.253Z,1.35
2022-12-20T06:16:09.498Z,1.34
2022-12-20T06:20:09.437Z,1.32
2022-12-20T06:24:09.700Z,1.30
2022-12-20T06:32:26.842Z,1.32
2022-12-20T06:36:29.131Z,1.32
2022-12-20T06:40:32.742Z,1.30
2022-12-20T06:44:07.495Z,1.30
2022-12-20T06:48:07.994Z,1.30
2022-12-20T06:52:09.344Z,1.32
2022-12-20T06:56:41.671Z,1.50
2022-12-20T06:59:59.010Z,1.48
2022-12-20T07:03:58.679Z,1.46
2022-12-20T07:08:19.714Z,1.40
2022-12-20T07:11:38.149Z,1.36
2022-12-20T07:15:38.312Z,1.35
2022-12-20T07:19:43.078Z,1.36
2022-12-20T07:23:19.943Z,1.37
2022-12-20T07:26:56.671Z,1.38
2022-12-20T07:31:01.435Z,1.41
2022-12-20T07:34:35.131Z,1.44
2022-12-20T07:38:39.138Z,1.50
2022-12-20T07:42:43.009Z,1.52
2022-12-20T07:46:48.639Z,1.51
2022-12-20T07:50:57.827Z,1.52
2022-12-20T07:54:33.072Z,1.55
2022-12-20T07:58:36.129Z,1.60
2022-12-20T08:02:14.333Z,1.65
2022-12-20T08:06:15.117Z,1.76
2022-12-20T08:10:17.215Z,1.83
2022-12-20T08:14:17.717Z,1.88
2022-12-20T08:18:17.595Z,1.86
2022-12-20T08:22:17.511Z,1.78
2022-12-20T08:26:16.797Z,1.71
2022-12-20T08:30:16.687Z,1.66
2022-12-20T08:34:16.756Z,1.64
2022-12-20T08:38:16.194Z,1.65
2022-12-20T08:42:15.570Z,1.65
2022-12-20T08:46:34.299Z,1.64
2022-12-20T08:49:52.412Z,1.65
2022-12-20T08:53:52.435Z,1.64
2022-12-20T08:57:51.603Z,1.64
2022-12-20T09:01:51.138Z,1.64
2022-12-20T09:05:50.572Z,1.65
2022-12-20T09:09:49.741Z,1.68
2022-12-20T09:14:02.756Z,1.73
2022-12-20T09:18:02.061Z,1.78
2022-12-20T09:22:00.838Z,1.80
2022-12-20T09:26:19.508Z,1.81
2022-12-20T09:29:37.574Z,1.82
2022-12-20T09:33:36.754Z,1.82
2022-12-20T09:37:35.857Z,1.95
2022-12-20T09:41:39.819Z,2.16
2022-12-20T09:45:40.373Z,2.33
2022-12-20T09:49:18.319Z,2.43
2022-12-20T09:53:23.388Z,2.53
2022-12-20T09:57:25.516Z,2.56
2022-12-20T10:01:28.756Z,2.55
2022-12-20T10:05:41.400Z,2.49
2022-12-20T10:09:59.700Z,2.44
2022-12-20T10:13:58.887Z,2.40
2022-12-20T10:18:30.566Z,2.32
2022-12-20T10:22:32.538Z,2.27
2022-12-20T10:26:50.883Z,2.23
2022-12-20T10:30:14.294Z,2.21
2022-12-20T10:34:15.655Z,2.21
2022-12-20T10:38:17.849Z,2.22
2022-12-20T10:42:30.414Z,2.22
2022-12-20T10:46:38.362Z,2.17
2022-12-20T10:51:01.428Z,2.14
2022-12-20T10:54:34.589Z,2.14
2022-12-20T10:58:37.287Z,2.15
2022-12-20T11:03:03.592Z,2.17
2022-12-20T11:06:16.136Z,2.18
2022-12-20T11:10:20.911Z,2.20
2022-12-20T11:14:41.897Z,2.20
2022-12-20T11:18:36.254Z,2.19
2022-12-20T11:21:42.035Z,2.17
2022-12-20T11:26:13.823Z,2.15
2022-12-20T11:30:20.023Z,2.14
2022-12-20T11:34:19.830Z,2.13
2022-12-20T11:38:37.905Z,2.16
2022-12-20T11:42:56.416Z,2.19
2022-12-20T11:47:00.427Z,2.18
2022-12-20T11:51:03.685Z,2.22
2022-12-20T11:55:22.836Z,2.28
2022-12-20T11:59:25.122Z,2.29
2022-12-20T12:03:40.025Z,2.27
2022-12-20T12:07:40.284Z,2.28
2022-12-20T12:20:32.097Z,2.23
2022-12-20T12:24:31.393Z,2.21
2022-12-20T12:28:31.166Z,2.17
2022-12-20T12:32:36.060Z,2.12
2022-12-20T12:36:54.664Z,2.11
2022-12-20T12:41:03.894Z,2.11
2022-12-20T12:45:22.276Z,2.10
2022-12-20T12:49:23.386Z,2.15
2022-12-20T12:53:37.372Z,2.17
2022-12-20T12:57:55.184Z,2.14
2022-12-20T13:01:56.944Z,2.12
2022-12-20T13:05:56.455Z,2.10
2022-12-20T13:09:56.229Z,2.12
2022-12-20T13:14:14.658Z,2.14
2022-12-20T13:18:14.233Z,2.13
2022-12-20T13:22:15.210Z,2.13
2022-12-20T13:26:33.385Z,2.12
2022-12-20T13:30:33.621Z,2.12
2022-12-20T13:34:59.385Z,2.07
2022-12-20T13:39:00.580Z,2.00
2022-12-20T13:43:06.099Z,1.98
2022-12-20T13:47:18.075Z,1.96
2022-12-20T13:51:19.383Z,2.00
2022-12-20T13:55:37.276Z,1.97
2022-12-20T13:59:37.019Z,1.95
2022-12-20T14:03:42.405Z,1.98
2022-12-20T14:07:18.070Z,2.00
2022-12-20T14:11:19.241Z,2.03
2022-12-20T14:15:29.475Z,2.07
2022-12-20T14:19:28.889Z,2.10
2022-12-20T14:23:38.113Z,2.12
2022-12-20T14:27:38.675Z,2.12
2022-12-20T14:31:42.951Z,2.14
2022-12-20T14:35:47.610Z,2.16
2022-12-20T14:40:09.100Z,2.17
2022-12-20T14:43:43.608Z,2.16
2022-12-20T14:47:05.710Z,2.16
2022-12-20T14:51:06.034Z,2.18
2022-12-20T14:55:08.923Z,2.18
2022-12-20T14:59:17.069Z,2.15
2022-12-20T15:03:21.877Z,2.14
2022-12-20T15:07:41.646Z,2.12
2022-12-20T15:11:03.749Z,2.11
2022-12-20T15:15:27.469Z,2.10
2022-12-20T15:19:23.079Z,2.08
2022-12-20T15:23:23.063Z,2.06
2022-12-20T15:27:24.584Z,2.04
2022-12-20T15:31:32.633Z,1.98
2022-12-20T15:35:33.884Z,1.88
2022-12-20T15:39:34.646Z,1.85
2022-12-20T15:43:49.716Z,1.85
2022-12-20T15:47:49.197Z,1.86
2022-12-20T15:51:49.659Z,1.86
2022-12-20T15:55:50.358Z,1.86
2022-12-20T16:00:04.466Z,1.87
2022-12-20T16:04:20.656Z,1.86
2022-12-20T16:08:20.388Z,1.85
2022-12-20T16:12:38.044Z,1.84
2022-12-20T16:15:57.022Z,1.84
2022-12-20T16:19:56.492Z,1.84
2022-12-20T16:23:56.112Z,1.85
2022-12-20T16:27:55.870Z,1.83
2022-12-20T16:31:57.176Z,1.82
2022-12-20T16:35:35.132Z,1.84
2022-12-20T16:39:35.219Z,1.90
2022-12-20T16:43:38.768Z,2.04
2022-12-20T16:47:39.991Z,2.13
2022-12-20T16:51:40.722Z,2.22
2022-12-20T16:55:40.341Z,2.31
2022-12-20T16:59:40.169Z,2.39
2022-12-20T17:03:39.128Z,2.43
2022-12-20T17:07:57.902Z,2.42
2022-12-20T17:11:17.647Z,2.39
2022-12-20T17:15:22.174Z,2.39
2022-12-20T17:19:35.838Z,2.40
2022-12-20T17:23:53.864Z,2.34
2022-12-20T17:27:12.580Z,2.25
2022-12-20T17:31:24.125Z,2.11
2022-12-20T17:35:30.756Z,2.06
2022-12-20T17:39:30.080Z,2.05
2022-12-20T17:43:42.877Z,2.04
2022-12-20T17:48:01.119Z,2.03
2022-12-20T17:51:23.125Z,2.01
2022-12-20T17:54:57.478Z,1.97
2022-12-20T17:58:56.959Z,1.98
2022-12-20T18:02:56.968Z,2.07
2022-12-20T18:06:57.110Z,2.23
2022-12-20T18:10:58.156Z,2.32
2022-12-20T18:15:11.946Z,2.32
2022-12-20T18:19:43.788Z,2.26
2022-12-20T18:23:02.251Z,2.20
2022-12-20T18:27:01.797Z,2.14
2022-12-20T18:31:02.087Z,2.09
2022-12-20T18:35:20.094Z,2.03
2022-12-20T18:38:39.561Z,2.01
2022-12-20T18:42:38.621Z,2.02
2022-12-20T18:46:38.183Z,2.02
2022-12-20T18:50:37.503Z,2.02
2022-12-20T18:54:36.976Z,1.99
2022-12-20T18:58:37.222Z,1.96
2022-12-20T19:02:36.634Z,2.06
2022-12-20T19:06:37.162Z,2.21
2022-12-20T19:10:36.372Z,2.27
2022-12-20T19:14:36.646Z,2.23
2022-12-20T19:18:13.574Z,2.17
2022-12-20T19:22:13.063Z,2.11
2022-12-20T19:26:13.778Z,2.07
2022-12-20T19:30:14.673Z,1.98
2022-12-20T19:34:15.821Z,1.89
2022-12-20T19:38:34.210Z,1.81
2022-12-20T19:42:22.182Z,1.74
2022-12-20T19:46:12.267Z,1.67
2022-12-20T19:50:11.729Z,1.63
2022-12-20T19:54:11.415Z,1.59
2022-12-20T19:58:11.215Z,1.54
2022-12-20T20:02:15.289Z,1.54
2022-12-20T20:06:14.810Z,1.57
2022-12-20T20:10:14.478Z,1.64
2022-12-20T20:14:14.708Z,1.71
2022-12-20T20:18:14.185Z,1.75
2022-12-20T20:22:19.212Z,1.75
2022-12-20T20:26:26.884Z,1.75
2022-12-20T20:30:26.484Z,1.76
2022-12-20T20:34:26.019Z,1.78
2022-12-20T20:38:28.400Z,1.80
2022-12-20T20:42:03.034Z,1.82
2022-12-20T20:46:02.015Z,1.83
2022-12-20T20:50:01.354Z,1.83
2022-12-20T20:54:00.910Z,1.84
2022-12-20T20:58:00.685Z,1.84
2022-12-20T21:02:00.197Z,1.86
2022-12-20T21:06:36.591Z,1.88
2022-12-20T21:10:19.040Z,1.90
2022-12-20T21:14:30.588Z,1.92
2022-12-20T21:18:38.272Z,1.93
2022-12-20T21:22:37.789Z,1.92
2022-12-20T21:26:37.234Z,1.92
2022-12-20T21:30:37.193Z,1.94
2022-12-20T21:34:37.332Z,1.96
2022-12-20T21:38:37.175Z,1.96
2022-12-20T21:42:37.051Z,1.94
2022-12-20T21:46:36.481Z,1.94
2022-12-20T21:50:36.829Z,1.91
2022-12-20T21:54:50.279Z,1.90
2022-12-20T21:58:51.069Z,1.88
2022-12-20T22:02:50.260Z,1.86
2022-12-20T22:06:49.522Z,1.85
2022-12-20T22:11:11.480Z,1.85
2022-12-20T22:14:26.859Z,1.85
2022-12-20T22:18:26.295Z,1.85
2022-12-20T22:22:26.028Z,1.82
2022-12-20T22:26:28.122Z,1.83
2022-12-20T22:30:27.218Z,1.86
2022-12-20T22:34:26.760Z,1.85
2022-12-20T22:38:26.135Z,1.86
2022-12-20T22:42:25.485Z,1.86
2022-12-20T22:46:28.514Z,1.87
2022-12-20T22:50:28.030Z,1.88
2022-12-20T22:54:27.654Z,1.89
2022-12-20T22:58:28.458Z,1.89
2022-12-20T23:06:41.379Z,2.01
2022-12-20T23:11:13.413Z,2.13
2022-12-20T23:15:32.251Z,2.18
2022-12-20T23:19:49.976Z,2.15
2022-12-20T23:24:03.353Z,2.12
2022-12-20T23:28:03.357Z,2.10
2022-12-20T23:32:03.372Z,2.12
2022-12-20T23:36:03.641Z,2.10
2022-12-20T23:40:02.698Z,2.05
2022-12-20T23:44:05.882Z,2.02
2022-12-20T23:48:05.516Z,2.00
2022-12-20T23:52:04.956Z,1.98
2022-12-20T23:56:06.319Z,1.96
